sensor_id;sensor_type;location;lat;lon;timestamp;temperature;humidity
25140;DHT22;39015;48.106;-1.682;2023-03-11T06:28:28;12.20;73.20
25140;DHT22;39015;48.106;-1.682;2023-03-11T06:30:55;12.20;73.20
25140;DHT22;39015;48.106;-1.682;2023-03-11T06:33:24;12.20;73.20
25140;DHT22;39015;48.106;-1.682;2023-03-11T06:35:57;12.20;73.20
25140;DHT22;39015;48.106;-1.682;2023-03-11T06:38:26;12.10;73.30
25140;DHT22;39015;48.106;-1.682;2023-03-11T06:40:53;12.20;73.30
25140;DHT22;39015;48.106;-1.682;2023-03-11T06:43:21;12.20;73.30
25140;DHT22;39015;48.106;-1.682;2023-03-11T06:45:49;12.20;73.40
25140;DHT22;39015;48.106;-1.682;2023-03-11T06:48:16;12.20;73.30
25140;DHT22;39015;48.106;-1.682;2023-03-11T06:50:43;12.20;73.30
25140;DHT22;39015;48.106;-1.682;2023-03-11T06:53:10;12.10;73.40
25140;DHT22;39015;48.106;-1.682;2023-03-11T06:55:38;12.10;73.40
25140;DHT22;39015;48.106;-1.682;2023-03-11T06:58:05;12.10;73.40
25140;DHT22;39015;48.106;-1.682;2023-03-11T07:00:32;12.10;73.40
25140;DHT22;39015;48.106;-1.682;2023-03-11T07:03:00;12.10;73.30
25140;DHT22;39015;48.106;-1.682;2023-03-11T07:05:27;12.10;73.40
25140;DHT22;39015;48.106;-1.682;2023-03-11T07:07:54;12.10;73.40
25140;DHT22;39015;48.106;-1.682;2023-03-11T07:10:21;12.10;73.40
25140;DHT22;39015;48.106;-1.682;2023-03-11T07:12:48;12.10;73.50
25140;DHT22;39015;48.106;-1.682;2023-03-11T07:15:15;12.10;73.60
25140;DHT22;39015;48.106;-1.682;2023-03-11T07:17:42;12.10;73.60
25140;DHT22;39015;48.106;-1.682;2023-03-11T07:20:13;12.10;73.60
25140;DHT22;39015;48.106;-1.682;2023-03-11T07:22:46;12.10;73.50
25140;DHT22;39015;48.106;-1.682;2023-03-11T07:25:23;12.10;73.50
25140;DHT22;39015;48.106;-1.682;2023-03-11T07:27:50;12.10;73.60
25140;DHT22;39015;48.106;-1.682;2023-03-11T07:30:18;12.10;73.60
25140;DHT22;39015;48.106;-1.682;2023-03-11T07:32:46;12.10;73.60
25140;DHT22;39015;48.106;-1.682;2023-03-11T07:35:15;12.10;73.60
25140;DHT22;39015;48.106;-1.682;2023-03-11T07:37:43;12.10;73.60
25140;DHT22;39015;48.106;-1.682;2023-03-11T07:40:11;12.10;73.60
25140;DHT22;39015;48.106;-1.682;2023-03-11T07:42:41;12.20;73.60
25140;DHT22;39015;48.106;-1.682;2023-03-11T07:45:09;12.20;73.50
25140;DHT22;39015;48.106;-1.682;2023-03-11T07:47:36;12.20;73.50
25140;DHT22;39015;48.106;-1.682;2023-03-11T07:50:04;12.20;73.40
25140;DHT22;39015;48.106;-1.682;2023-03-11T07:52:32;12.30;73.40
25140;DHT22;39015;48.106;-1.682;2023-03-11T07:54:59;12.30;73.40
25140;DHT22;39015;48.106;-1.682;2023-03-11T07:57:26;12.30;73.40
25140;DHT22;39015;48.106;-1.682;2023-03-11T07:59:53;12.30;73.30
25140;DHT22;39015;48.106;-1.682;2023-03-11T08:02:20;12.30;73.40
25140;DHT22;39015;48.106;-1.682;2023-03-11T08:04:47;12.30;73.40
25140;DHT22;39015;48.106;-1.682;2023-03-11T08:07:14;12.30;73.50
25140;DHT22;39015;48.106;-1.682;2023-03-11T08:09:42;12.30;73.40
25140;DHT22;39015;48.106;-1.682;2023-03-11T08:12:09;12.30;73.40
25140;DHT22;39015;48.106;-1.682;2023-03-11T08:14:36;12.30;73.40
25140;DHT22;39015;48.106;-1.682;2023-03-11T08:17:05;12.30;73.40
25140;DHT22;39015;48.106;-1.682;2023-03-11T08:19:33;12.30;73.50
25140;DHT22;39015;48.106;-1.682;2023-03-11T08:22:00;12.30;73.40
25140;DHT22;39015;48.106;-1.682;2023-03-11T08:24:28;12.30;73.40
25140;DHT22;39015;48.106;-1.682;2023-03-11T08:26:56;12.30;73.50
25140;DHT22;39015;48.106;-1.682;2023-03-11T08:29:23;12.30;73.40
25140;DHT22;39015;48.106;-1.682;2023-03-11T08:31:50;12.30;73.50
25140;DHT22;39015;48.106;-1.682;2023-03-11T08:34:17;12.30;73.50
25140;DHT22;39015;48.106;-1.682;2023-03-11T08:36:45;12.30;73.50
25140;DHT22;39015;48.106;-1.682;2023-03-11T08:39:12;12.30;73.60
25140;DHT22;39015;48.106;-1.682;2023-03-11T08:41:39;12.30;73.60
25140;DHT22;39015;48.106;-1.682;2023-03-11T08:44:08;12.30;73.70
25140;DHT22;39015;48.106;-1.682;2023-03-11T08:46:36;12.30;73.80
25140;DHT22;39015;48.106;-1.682;2023-03-11T08:49:04;12.30;73.80
25140;DHT22;39015;48.106;-1.682;2023-03-11T08:51:32;12.30;73.90
25140;DHT22;39015;48.106;-1.682;2023-03-11T08:54:09;12.30;73.90
25140;DHT22;39015;48.106;-1.682;2023-03-11T08:56:39;12.30;74.00
25140;DHT22;39015;48.106;-1.682;2023-03-11T08:59:08;12.20;74.10
25140;DHT22;39015;48.106;-1.682;2023-03-11T09:01:35;12.30;74.20
25140;DHT22;39015;48.106;-1.682;2023-03-11T09:04:02;12.20;74.10
25140;DHT22;39015;48.106;-1.682;2023-03-11T09:06:29;12.20;74.10
25140;DHT22;39015;48.106;-1.682;2023-03-11T09:08:56;12.30;74.20
25140;DHT22;39015;48.106;-1.682;2023-03-11T09:11:24;12.30;74.20
25140;DHT22;39015;48.106;-1.682;2023-03-11T09:13:51;12.30;74.20
25140;DHT22;39015;48.106;-1.682;2023-03-11T09:16:21;12.30;74.20
25140;DHT22;39015;48.106;-1.682;2023-03-11T09:18:48;12.30;74.20
25140;DHT22;39015;48.106;-1.682;2023-03-11T09:21:16;12.30;74.40
25140;DHT22;39015;48.106;-1.682;2023-03-11T09:23:43;12.30;74.40
25140;DHT22;39015;48.106;-1.682;2023-03-11T09:26:10;12.30;74.40
25140;DHT22;39015;48.106;-1.682;2023-03-11T09:28:37;12.10;75.20
25140;DHT22;39015;48.106;-1.682;2023-03-11T09:31:08;11.90;76.00
25140;DHT22;39015;48.106;-1.682;2023-03-11T09:33:41;11.90;76.40
25140;DHT22;39015;48.106;-1.682;2023-03-11T09:36:12;11.90;76.60
25140;DHT22;39015;48.106;-1.682;2023-03-11T09:38:40;11.90;76.50
25140;DHT22;39015;48.106;-1.682;2023-03-11T09:41:24;11.90;76.50
25140;DHT22;39015;48.106;-1.682;2023-03-11T09:44:07;11.90;76.40
25140;DHT22;39015;48.106;-1.682;2023-03-11T09:46:53;11.80;77.60
25140;DHT22;39015;48.106;-1.682;2023-03-11T09:49:31;11.60;78.60
25140;DHT22;39015;48.106;-1.682;2023-03-11T09:52:08;11.40;79.50
25140;DHT22;39015;48.106;-1.682;2023-03-11T09:54:39;11.40;79.80
25140;DHT22;39015;48.106;-1.682;2023-03-11T09:57:11;11.40;79.60
25140;DHT22;39015;48.106;-1.682;2023-03-11T09:59:40;11.50;79.30
25140;DHT22;39015;48.106;-1.682;2023-03-11T10:02:14;11.60;79.10
25140;DHT22;39015;48.106;-1.682;2023-03-11T10:04:49;11.70;78.80
25140;DHT22;39015;48.106;-1.682;2023-03-11T10:07:20;11.80;78.60
25140;DHT22;39015;48.106;-1.682;2023-03-11T10:09:51;11.80;78.30
25140;DHT22;39015;48.106;-1.682;2023-03-11T10:12:28;11.90;78.20
25140;DHT22;39015;48.106;-1.682;2023-03-11T10:15:11;11.90;78.00
25140;DHT22;39015;48.106;-1.682;2023-03-11T10:17:49;12.00;77.90
25140;DHT22;39015;48.106;-1.682;2023-03-11T10:20:23;12.00;77.90
25140;DHT22;39015;48.106;-1.682;2023-03-11T10:23:00;12.00;77.70
25140;DHT22;39015;48.106;-1.682;2023-03-11T10:25:33;12.10;77.80
25140;DHT22;39015;48.106;-1.682;2023-03-11T10:28:12;12.10;77.70
25140;DHT22;39015;48.106;-1.682;2023-03-11T10:30:44;12.10;77.70
25140;DHT22;39015;48.106;-1.682;2023-03-11T10:33:17;12.10;77.70
25140;DHT22;39015;48.106;-1.682;2023-03-11T10:35:55;12.20;77.60
25140;DHT22;39015;48.106;-1.682;2023-03-11T10:38:32;12.20;77.70
25140;DHT22;39015;48.106;-1.682;2023-03-11T10:41:03;12.20;77.60
25140;DHT22;39015;48.106;-1.682;2023-03-11T10:43:36;12.20;77.60
25140;DHT22;39015;48.106;-1.682;2023-03-11T10:46:09;12.20;77.50
25140;DHT22;39015;48.106;-1.682;2023-03-11T10:48:38;12.20;77.50
25140;DHT22;39015;48.106;-1.682;2023-03-11T10:51:14;12.20;77.50
25140;DHT22;39015;48.106;-1.682;2023-03-11T10:53:46;12.30;77.70
25140;DHT22;39015;48.106;-1.682;2023-03-11T10:56:25;12.30;77.50
25140;DHT22;39015;48.106;-1.682;2023-03-11T10:58:52;12.30;77.60
25140;DHT22;39015;48.106;-1.682;2023-03-11T11:01:20;12.30;77.70
25140;DHT22;39015;48.106;-1.682;2023-03-11T11:03:49;12.30;77.50
25140;DHT22;39015;48.106;-1.682;2023-03-11T11:06:25;12.30;77.70
25140;DHT22;39015;48.106;-1.682;2023-03-11T11:09:11;12.30;77.80
25140;DHT22;39015;48.106;-1.682;2023-03-11T11:11:40;12.40;77.80
25140;DHT22;39015;48.106;-1.682;2023-03-11T11:14:07;12.40;77.80
25140;DHT22;39015;48.106;-1.682;2023-03-11T11:16:36;12.40;77.80
25140;DHT22;39015;48.106;-1.682;2023-03-11T11:19:07;12.30;77.80
25140;DHT22;39015;48.106;-1.682;2023-03-11T11:21:37;12.40;77.90
25140;DHT22;39015;48.106;-1.682;2023-03-11T11:24:13;12.40;78.00
25140;DHT22;39015;48.106;-1.682;2023-03-11T11:27:04;12.40;78.00
25140;DHT22;39015;48.106;-1.682;2023-03-11T11:29:37;12.40;78.00
25140;DHT22;39015;48.106;-1.682;2023-03-11T11:32:19;12.40;78.10
25140;DHT22;39015;48.106;-1.682;2023-03-11T11:34:56;12.40;78.10
25140;DHT22;39015;48.106;-1.682;2023-03-11T11:37:29;12.40;78.00
25140;DHT22;39015;48.106;-1.682;2023-03-11T11:39:59;12.50;78.10
25140;DHT22;39015;48.106;-1.682;2023-03-11T11:42:35;12.50;78.20
25140;DHT22;39015;48.106;-1.682;2023-03-11T11:45:13;12.40;78.20
25140;DHT22;39015;48.106;-1.682;2023-03-11T11:47:47;12.50;78.30
25140;DHT22;39015;48.106;-1.682;2023-03-11T11:50:18;12.50;78.20
25140;DHT22;39015;48.106;-1.682;2023-03-11T11:52:56;12.50;78.40
25140;DHT22;39015;48.106;-1.682;2023-03-11T11:55:25;12.50;78.30
25140;DHT22;39015;48.106;-1.682;2023-03-11T11:57:53;12.50;78.50
25140;DHT22;39015;48.106;-1.682;2023-03-11T12:00:22;12.50;78.60
25140;DHT22;39015;48.106;-1.682;2023-03-11T12:03:05;12.50;78.50
25140;DHT22;39015;48.106;-1.682;2023-03-11T12:05:48;12.50;78.60
25140;DHT22;39015;48.106;-1.682;2023-03-11T12:08:22;12.50;78.50
25140;DHT22;39015;48.106;-1.682;2023-03-11T12:10:56;12.50;78.70
25140;DHT22;39015;48.106;-1.682;2023-03-11T12:13:42;12.50;78.70
25140;DHT22;39015;48.106;-1.682;2023-03-11T12:16:19;12.50;78.70
25140;DHT22;39015;48.106;-1.682;2023-03-11T12:18:51;12.50;78.80
25140;DHT22;39015;48.106;-1.682;2023-03-11T12:21:31;12.50;78.90
25140;DHT22;39015;48.106;-1.682;2023-03-11T12:24:11;12.60;79.50
25140;DHT22;39015;48.106;-1.682;2023-03-11T12:26:42;12.60;79.00
25140;DHT22;39015;48.106;-1.682;2023-03-11T12:29:16;12.60;79.00
25140;DHT22;39015;48.106;-1.682;2023-03-11T12:31:46;12.60;79.00
25140;DHT22;39015;48.106;-1.682;2023-03-11T12:34:15;12.60;79.20
25140;DHT22;39015;48.106;-1.682;2023-03-11T12:36:46;12.60;79.50
25140;DHT22;39015;48.106;-1.682;2023-03-11T12:39:22;12.60;79.60
25140;DHT22;39015;48.106;-1.682;2023-03-11T12:42:14;12.60;79.50
25140;DHT22;39015;48.106;-1.682;2023-03-11T12:44:42;12.60;79.60
25140;DHT22;39015;48.106;-1.682;2023-03-11T12:47:27;12.60;79.70
25140;DHT22;39015;48.106;-1.682;2023-03-11T12:49:55;12.60;79.80
25140;DHT22;39015;48.106;-1.682;2023-03-11T12:52:52;12.60;79.70
25140;DHT22;39015;48.106;-1.682;2023-03-11T12:55:33;12.70;79.70
25140;DHT22;39015;48.106;-1.682;2023-03-11T13:01:14;12.70;79.80
25140;DHT22;39015;48.106;-1.682;2023-03-11T13:03:52;12.70;80.00
25140;DHT22;39015;48.106;-1.682;2023-03-11T13:06:41;12.70;80.00
25140;DHT22;39015;48.106;-1.682;2023-03-11T13:09:15;12.70;80.10
25140;DHT22;39015;48.106;-1.682;2023-03-11T13:11:47;12.80;80.10
25140;DHT22;39015;48.106;-1.682;2023-03-11T13:14:30;12.80;80.20
25140;DHT22;39015;48.106;-1.682;2023-03-11T13:17:21;12.80;80.10
25140;DHT22;39015;48.106;-1.682;2023-03-11T13:19:52;12.80;80.20
25140;DHT22;39015;48.106;-1.682;2023-03-11T13:25:30;12.90;80.00
25140;DHT22;39015;48.106;-1.682;2023-03-11T13:28:34;12.90;80.00
25140;DHT22;39015;48.106;-1.682;2023-03-11T13:31:39;12.90;80.10
25140;DHT22;39015;48.106;-1.682;2023-03-11T13:34:14;12.90;80.00
25140;DHT22;39015;48.106;-1.682;2023-03-11T13:36:52;12.90;80.00
25140;DHT22;39015;48.106;-1.682;2023-03-11T13:39:41;12.90;80.00
25140;DHT22;39015;48.106;-1.682;2023-03-11T13:42:23;12.90;80.10
25140;DHT22;39015;48.106;-1.682;2023-03-11T13:44:53;13.00;80.10
25140;DHT22;39015;48.106;-1.682;2023-03-11T13:47:22;13.00;80.20
25140;DHT22;39015;48.106;-1.682;2023-03-11T13:49:53;13.00;81.10
25140;DHT22;39015;48.106;-1.682;2023-03-11T13:52:25;13.00;80.10
25140;DHT22;39015;48.106;-1.682;2023-03-11T13:54:59;13.00;80.10
25140;DHT22;39015;48.106;-1.682;2023-03-11T13:57:34;13.00;80.00
25140;DHT22;39015;48.106;-1.682;2023-03-11T14:00:16;13.00;80.00
25140;DHT22;39015;48.106;-1.682;2023-03-11T14:02:49;13.00;80.10
25140;DHT22;39015;48.106;-1.682;2023-03-11T14:05:21;13.00;80.20
25140;DHT22;39015;48.106;-1.682;2023-03-11T14:07:49;13.00;80.20
25140;DHT22;39015;48.106;-1.682;2023-03-11T14:10:25;13.00;80.30
25140;DHT22;39015;48.106;-1.682;2023-03-11T14:13:05;13.00;80.20
25140;DHT22;39015;48.106;-1.682;2023-03-11T14:15:41;13.00;80.20
25140;DHT22;39015;48.106;-1.682;2023-03-11T14:18:26;13.00;80.50
25140;DHT22;39015;48.106;-1.682;2023-03-11T14:20:53;13.00;80.30
25140;DHT22;39015;48.106;-1.682;2023-03-11T14:23:29;13.00;80.40
25140;DHT22;39015;48.106;-1.682;2023-03-11T14:25:58;13.10;80.40
25140;DHT22;39015;48.106;-1.682;2023-03-11T14:28:26;13.10;80.50
25140;DHT22;39015;48.106;-1.682;2023-03-11T14:30:59;13.10;80.40
25140;DHT22;39015;48.106;-1.682;2023-03-11T14:33:27;13.20;80.30
25140;DHT22;39015;48.106;-1.682;2023-03-11T14:35:55;13.20;80.40
25140;DHT22;39015;48.106;-1.682;2023-03-11T14:38:24;13.20;80.40
25140;DHT22;39015;48.106;-1.682;2023-03-11T14:40:53;13.20;80.40
25140;DHT22;39015;48.106;-1.682;2023-03-11T14:43:21;13.20;80.40
25140;DHT22;39015;48.106;-1.682;2023-03-11T14:45:49;13.20;80.50
25140;DHT22;39015;48.106;-1.682;2023-03-11T14:48:22;13.20;80.60
25140;DHT22;39015;48.106;-1.682;2023-03-11T14:50:51;13.20;80.60
25140;DHT22;39015;48.106;-1.682;2023-03-11T14:53:22;13.20;80.60
25140;DHT22;39015;48.106;-1.682;2023-03-11T14:55:54;13.20;80.80
25140;DHT22;39015;48.106;-1.682;2023-03-11T14:58:27;13.20;80.90
25140;DHT22;39015;48.106;-1.682;2023-03-11T15:00:57;13.20;81.00
25140;DHT22;39015;48.106;-1.682;2023-03-11T15:03:29;13.20;81.10
25140;DHT22;39015;48.106;-1.682;2023-03-11T15:05:58;13.20;81.10
25140;DHT22;39015;48.106;-1.682;2023-03-11T15:08:30;13.30;81.00
25140;DHT22;39015;48.106;-1.682;2023-03-11T15:11:16;13.30;80.90
25140;DHT22;39015;48.106;-1.682;2023-03-11T15:13:45;13.40;81.00
25140;DHT22;39015;48.106;-1.682;2023-03-11T15:16:24;13.40;81.10
25140;DHT22;39015;48.106;-1.682;2023-03-11T15:18:53;13.40;81.00
25140;DHT22;39015;48.106;-1.682;2023-03-11T15:21:21;13.40;81.00
25140;DHT22;39015;48.106;-1.682;2023-03-11T15:23:50;13.50;81.20
25140;DHT22;39015;48.106;-1.682;2023-03-11T15:26:21;13.60;81.10
25140;DHT22;39015;48.106;-1.682;2023-03-11T15:28:54;13.50;81.00
25140;DHT22;39015;48.106;-1.682;2023-03-11T15:31:31;13.60;81.00
25140;DHT22;39015;48.106;-1.682;2023-03-11T15:34:24;13.60;81.00
25140;DHT22;39015;48.106;-1.682;2023-03-11T15:37:02;13.60;81.20
25140;DHT22;39015;48.106;-1.682;2023-03-11T15:39:43;13.60;82.00
25140;DHT22;39015;48.106;-1.682;2023-03-11T15:42:22;13.60;81.10
25140;DHT22;39015;48.106;-1.682;2023-03-11T15:45:12;13.60;80.70
25140;DHT22;39015;48.106;-1.682;2023-03-11T15:47:42;13.60;80.70
25140;DHT22;39015;48.106;-1.682;2023-03-11T15:50:17;13.60;80.60
25140;DHT22;39015;48.106;-1.682;2023-03-11T15:52:45;13.60;80.50
25140;DHT22;39015;48.106;-1.682;2023-03-11T15:55:13;13.70;80.80
25140;DHT22;39015;48.106;-1.682;2023-03-11T15:57:40;13.70;80.70
25140;DHT22;39015;48.106;-1.682;2023-03-11T16:00:15;13.70;80.80
25140;DHT22;39015;48.106;-1.682;2023-03-11T16:02:44;13.70;81.00
25140;DHT22;39015;48.106;-1.682;2023-03-11T16:05:14;13.70;80.90
25140;DHT22;39015;48.106;-1.682;2023-03-11T16:07:42;13.70;80.90
25140;DHT22;39015;48.106;-1.682;2023-03-11T16:10:10;13.70;81.00
25140;DHT22;39015;48.106;-1.682;2023-03-11T16:12:37;13.70;81.20
25140;DHT22;39015;48.106;-1.682;2023-03-11T16:15:05;13.80;81.30
25140;DHT22;39015;48.106;-1.682;2023-03-11T16:17:33;13.80;81.40
25140;DHT22;39015;48.106;-1.682;2023-03-11T16:19:59;13.70;81.50
25140;DHT22;39015;48.106;-1.682;2023-03-11T16:22:33;13.70;81.40
25140;DHT22;39015;48.106;-1.682;2023-03-11T16:25:02;13.70;81.30
25140;DHT22;39015;48.106;-1.682;2023-03-11T16:27:29;13.70;81.40
25140;DHT22;39015;48.106;-1.682;2023-03-11T16:29:56;13.70;81.50
25140;DHT22;39015;48.106;-1.682;2023-03-11T16:32:24;13.80;81.50
25140;DHT22;39015;48.106;-1.682;2023-03-11T16:34:51;13.80;81.10
25140;DHT22;39015;48.106;-1.682;2023-03-11T16:37:18;13.80;81.00
25140;DHT22;39015;48.106;-1.682;2023-03-11T16:39:47;13.80;81.00
25140;DHT22;39015;48.106;-1.682;2023-03-11T16:42:20;13.80;80.80
25140;DHT22;39015;48.106;-1.682;2023-03-11T16:44:48;13.80;80.90
25140;DHT22;39015;48.106;-1.682;2023-03-11T16:47:16;13.80;80.80
25140;DHT22;39015;48.106;-1.682;2023-03-11T16:49:43;13.80;80.90
25140;DHT22;39015;48.106;-1.682;2023-03-11T16:52:10;13.80;81.00
25140;DHT22;39015;48.106;-1.682;2023-03-11T16:54:37;13.80;81.00
25140;DHT22;39015;48.106;-1.682;2023-03-11T16:57:05;13.80;81.00
25140;DHT22;39015;48.106;-1.682;2023-03-11T16:59:32;13.80;81.00
25140;DHT22;39015;48.106;-1.682;2023-03-11T17:01:59;13.80;80.90
25140;DHT22;39015;48.106;-1.682;2023-03-11T17:04:27;13.80;80.80
25140;DHT22;39015;48.106;-1.682;2023-03-11T17:06:54;13.80;80.80
25140;DHT22;39015;48.106;-1.682;2023-03-11T17:09:21;13.80;80.90
25140;DHT22;39015;48.106;-1.682;2023-03-11T17:11:48;13.80;81.00
25140;DHT22;39015;48.106;-1.682;2023-03-11T17:14:17;13.80;80.80
25140;DHT22;39015;48.106;-1.682;2023-03-11T17:16:44;13.80;80.90
25140;DHT22;39015;48.106;-1.682;2023-03-11T17:19:12;13.80;81.10
25140;DHT22;39015;48.106;-1.682;2023-03-11T17:21:39;13.80;80.60
25140;DHT22;39015;48.106;-1.682;2023-03-11T17:24:07;13.80;81.40
25140;DHT22;39015;48.106;-1.682;2023-03-11T17:26:34;13.90;81.40
25140;DHT22;39015;48.106;-1.682;2023-03-11T17:29:01;13.90;81.60
25140;DHT22;39015;48.106;-1.682;2023-03-11T17:31:30;13.90;81.40
25140;DHT22;39015;48.106;-1.682;2023-03-11T17:33:57;13.90;81.30
25140;DHT22;39015;48.106;-1.682;2023-03-11T17:36:24;13.90;81.10
25140;DHT22;39015;48.106;-1.682;2023-03-11T17:38:52;13.90;81.10
25140;DHT22;39015;48.106;-1.682;2023-03-11T17:41:20;13.90;81.10
25140;DHT22;39015;48.106;-1.682;2023-03-11T17:43:47;14.00;80.90
25140;DHT22;39015;48.106;-1.682;2023-03-11T17:46:16;14.00;80.90
25140;DHT22;39015;48.106;-1.682;2023-03-11T17:48:46;14.00;80.80
25140;DHT22;39015;48.106;-1.682;2023-03-11T17:51:15;14.00;81.00
25140;DHT22;39015;48.106;-1.682;2023-03-11T17:53:44;14.00;80.80
25140;DHT22;39015;48.106;-1.682;2023-03-11T17:56:13;14.00;81.00
25140;DHT22;39015;48.106;-1.682;2023-03-11T17:58:40;14.00;80.90
25140;DHT22;39015;48.106;-1.682;2023-03-11T18:01:10;14.00;81.00
25140;DHT22;39015;48.106;-1.682;2023-03-11T18:03:38;14.00;81.00
25140;DHT22;39015;48.106;-1.682;2023-03-11T18:06:07;14.10;80.90
25140;DHT22;39015;48.106;-1.682;2023-03-11T18:08:35;14.00;80.90
25140;DHT22;39015;48.106;-1.682;2023-03-11T18:11:04;14.10;81.00
25140;DHT22;39015;48.106;-1.682;2023-03-11T18:13:32;14.10;81.10
25140;DHT22;39015;48.106;-1.682;2023-03-11T18:16:01;14.10;81.10
25140;DHT22;39015;48.106;-1.682;2023-03-11T18:18:29;14.10;81.20
25140;DHT22;39015;48.106;-1.682;2023-03-11T18:21:00;14.00;81.30
25140;DHT22;39015;48.106;-1.682;2023-03-11T18:23:30;14.00;81.40
25140;DHT22;39015;48.106;-1.682;2023-03-11T18:25:58;14.10;81.40
25140;DHT22;39015;48.106;-1.682;2023-03-11T18:28:25;14.10;81.40
25140;DHT22;39015;48.106;-1.682;2023-03-11T18:30:52;14.10;81.40
25140;DHT22;39015;48.106;-1.682;2023-03-11T18:33:20;14.10;81.40
25140;DHT22;39015;48.106;-1.682;2023-03-11T18:35:47;14.10;81.40
25140;DHT22;39015;48.106;-1.682;2023-03-11T18:38:14;14.10;81.40
25140;DHT22;39015;48.106;-1.682;2023-03-11T18:40:43;14.10;81.30
25140;DHT22;39015;48.106;-1.682;2023-03-11T18:43:11;14.10;81.30
25140;DHT22;39015;48.106;-1.682;2023-03-11T18:45:39;14.10;81.30
25140;DHT22;39015;48.106;-1.682;2023-03-11T18:48:06;14.10;81.30
25140;DHT22;39015;48.106;-1.682;2023-03-11T18:50:33;14.10;81.40
25140;DHT22;39015;48.106;-1.682;2023-03-11T18:53:02;14.10;81.40
25140;DHT22;39015;48.106;-1.682;2023-03-11T18:55:29;14.10;81.40
25140;DHT22;39015;48.106;-1.682;2023-03-11T18:57:57;14.10;81.50
25140;DHT22;39015;48.106;-1.682;2023-03-11T19:00:25;14.10;81.60
25140;DHT22;39015;48.106;-1.682;2023-03-11T19:02:52;14.10;81.50
25140;DHT22;39015;48.106;-1.682;2023-03-11T19:05:20;14.10;81.60
25140;DHT22;39015;48.106;-1.682;2023-03-11T19:07:47;14.10;82.50
25140;DHT22;39015;48.106;-1.682;2023-03-11T19:10:14;14.10;81.60
25140;DHT22;39015;48.106;-1.682;2023-03-11T19:12:44;14.10;81.60
25140;DHT22;39015;48.106;-1.682;2023-03-11T19:15:13;14.10;81.70
25140;DHT22;39015;48.106;-1.682;2023-03-11T19:17:40;14.10;81.80
25140;DHT22;39015;48.106;-1.682;2023-03-11T19:20:07;14.10;81.80
25140;DHT22;39015;48.106;-1.682;2023-03-11T19:22:35;14.10;82.70
25140;DHT22;39015;48.106;-1.682;2023-03-11T19:25:03;14.10;81.80
25140;DHT22;39015;48.106;-1.682;2023-03-11T19:27:30;14.10;81.80
25140;DHT22;39015;48.106;-1.682;2023-03-11T19:29:57;14.10;81.90
25140;DHT22;39015;48.106;-1.682;2023-03-11T19:32:26;14.10;81.80
25140;DHT22;39015;48.106;-1.682;2023-03-11T19:34:53;14.10;81.90
25140;DHT22;39015;48.106;-1.682;2023-03-11T19:37:20;14.10;81.90
25140;DHT22;39015;48.106;-1.682;2023-03-11T19:39:47;14.10;81.80
25140;DHT22;39015;48.106;-1.682;2023-03-11T19:42:14;14.10;81.90
25140;DHT22;39015;48.106;-1.682;2023-03-11T19:44:41;14.10;81.80
25140;DHT22;39015;48.106;-1.682;2023-03-11T19:47:09;14.20;81.70
25140;DHT22;39015;48.106;-1.682;2023-03-11T19:49:38;14.20;81.70
25140;DHT22;39015;48.106;-1.682;2023-03-11T19:52:05;14.20;81.70
25140;DHT22;39015;48.106;-1.682;2023-03-11T19:54:34;14.20;81.70
25140;DHT22;39015;48.106;-1.682;2023-03-11T19:57:01;14.20;81.60
25140;DHT22;39015;48.106;-1.682;2023-03-11T19:59:28;14.30;81.70
25140;DHT22;39015;48.106;-1.682;2023-03-11T20:01:55;14.30;81.60
25140;DHT22;39015;48.106;-1.682;2023-03-11T20:04:23;14.30;81.50
25140;DHT22;39015;48.106;-1.682;2023-03-11T20:06:51;14.30;81.60
25140;DHT22;39015;48.106;-1.682;2023-03-11T20:09:18;14.30;81.50
25140;DHT22;39015;48.106;-1.682;2023-03-11T20:11:47;14.30;81.40
25140;DHT22;39015;48.106;-1.682;2023-03-11T20:14:14;14.30;81.50
25140;DHT22;39015;48.106;-1.682;2023-03-11T20:16:41;14.30;81.60
25140;DHT22;39015;48.106;-1.682;2023-03-11T20:19:08;14.30;81.60
25140;DHT22;39015;48.106;-1.682;2023-03-11T20:21:36;14.30;81.60
25140;DHT22;39015;48.106;-1.682;2023-03-11T20:24:07;14.30;81.60
25140;DHT22;39015;48.106;-1.682;2023-03-11T20:26:35;14.30;81.60
25140;DHT22;39015;48.106;-1.682;2023-03-11T20:29:02;14.30;81.70
25140;DHT22;39015;48.106;-1.682;2023-03-11T20:31:30;14.30;81.70
25140;DHT22;39015;48.106;-1.682;2023-03-11T20:33:57;14.30;81.80
25140;DHT22;39015;48.106;-1.682;2023-03-11T20:36:26;14.30;81.80
25140;DHT22;39015;48.106;-1.682;2023-03-11T20:38:54;14.30;81.90
25140;DHT22;39015;48.106;-1.682;2023-03-11T20:41:24;14.30;82.00
25140;DHT22;39015;48.106;-1.682;2023-03-11T20:43:52;14.30;82.20
25140;DHT22;39015;48.106;-1.682;2023-03-11T20:46:19;14.30;82.40
25140;DHT22;39015;48.106;-1.682;2023-03-11T20:48:47;14.30;82.30
25140;DHT22;39015;48.106;-1.682;2023-03-11T20:51:15;14.30;82.40
25140;DHT22;39015;48.106;-1.682;2023-03-11T20:53:44;14.30;82.50
25140;DHT22;39015;48.106;-1.682;2023-03-11T20:56:12;14.30;82.50
25140;DHT22;39015;48.106;-1.682;2023-03-11T20:58:41;14.30;82.50
25140;DHT22;39015;48.106;-1.682;2023-03-11T21:01:11;14.30;82.30
25140;DHT22;39015;48.106;-1.682;2023-03-11T21:03:38;14.30;82.30
25140;DHT22;39015;48.106;-1.682;2023-03-11T21:06:12;14.30;82.30
25140;DHT22;39015;48.106;-1.682;2023-03-11T21:08:39;14.30;82.20
25140;DHT22;39015;48.106;-1.682;2023-03-11T21:11:06;14.30;82.10
25140;DHT22;39015;48.106;-1.682;2023-03-11T21:13:33;14.30;82.20
25140;DHT22;39015;48.106;-1.682;2023-03-11T21:16:02;14.30;82.20
25140;DHT22;39015;48.106;-1.682;2023-03-11T21:18:29;14.30;82.20
25140;DHT22;39015;48.106;-1.682;2023-03-11T21:20:56;14.30;82.20
25140;DHT22;39015;48.106;-1.682;2023-03-11T21:23:23;14.30;82.20
25140;DHT22;39015;48.106;-1.682;2023-03-11T21:26:01;14.30;82.20
25140;DHT22;39015;48.106;-1.682;2023-03-11T21:28:28;14.30;82.30
25140;DHT22;39015;48.106;-1.682;2023-03-11T21:30:58;14.30;82.40
25140;DHT22;39015;48.106;-1.682;2023-03-11T21:33:27;14.30;82.50
25140;DHT22;39015;48.106;-1.682;2023-03-11T21:35:56;14.30;82.30
25140;DHT22;39015;48.106;-1.682;2023-03-11T21:38:24;14.30;82.30
25140;DHT22;39015;48.106;-1.682;2023-03-11T21:40:52;14.30;82.30
25140;DHT22;39015;48.106;-1.682;2023-03-11T21:43:19;14.30;82.50
25140;DHT22;39015;48.106;-1.682;2023-03-11T21:45:46;14.30;82.40
25140;DHT22;39015;48.106;-1.682;2023-03-11T21:48:14;14.30;82.40
25140;DHT22;39015;48.106;-1.682;2023-03-11T21:50:47;14.30;82.40
25140;DHT22;39015;48.106;-1.682;2023-03-11T21:53:15;14.30;82.50
25140;DHT22;39015;48.106;-1.682;2023-03-11T21:55:42;14.30;82.50
25140;DHT22;39015;48.106;-1.682;2023-03-11T21:58:12;14.30;82.50
25140;DHT22;39015;48.106;-1.682;2023-03-11T22:00:39;14.30;82.50
25140;DHT22;39015;48.106;-1.682;2023-03-11T22:03:06;14.30;82.60
25140;DHT22;39015;48.106;-1.682;2023-03-11T22:05:33;14.30;82.60
25140;DHT22;39015;48.106;-1.682;2023-03-11T22:08:01;14.30;82.60
25140;DHT22;39015;48.106;-1.682;2023-03-11T22:10:29;14.30;82.60